sensor_id;sensor_type;location;lat;lon;timestamp;pressure;altitude;pressure_sealevel;temperature;humidity
71004;BME280;59025;42.050;-8.660;2022-08-21T00:00:28;101193.19;;;20.96;100.00
71004;BME280;59025;42.050;-8.660;2022-08-21T00:02:59;101192.63;;;20.94;100.00
71004;BME280;59025;42.050;-8.660;2022-08-21T00:05:28;101190.03;;;20.94;100.00
71004;BME280;59025;42.050;-8.660;2022-08-21T00:07:55;101192.91;;;20.97;100.00
71004;BME280;59025;42.050;-8.660;2022-08-21T00:10:25;101185.66;;;21.04;100.00
71004;BME280;59025;42.050;-8.660;2022-08-21T00:12:52;101185.88;;;20.98;100.00
71004;BME280;59025;42.050;-8.660;2022-08-21T00:15:23;101195.41;;;20.82;100.00
71004;BME280;59025;42.050;-8.660;2022-08-21T00:17:52;101193.00;;;20.76;100.00
71004;BME280;59025;42.050;-8.660;2022-08-21T00:20:20;101206.84;;;20.71;100.00
71004;BME280;59025;42.050;-8.660;2022-08-21T00:22:48;101208.88;;;20.64;100.00
71004;BME280;59025;42.050;-8.660;2022-08-21T00:25:16;101205.66;;;20.57;100.00
71004;BME280;59025;42.050;-8.660;2022-08-21T00:27:46;101206.47;;;20.58;100.00
71004;BME280;59025;42.050;-8.660;2022-08-21T00:30:16;101203.84;;;20.58;100.00
71004;BME280;59025;42.050;-8.660;2022-08-21T00:32:44;101207.56;;;20.67;100.00
71004;BME280;59025;42.050;-8.660;2022-08-21T00:35:15;101193.69;;;20.61;100.00
71004;BME280;59025;42.050;-8.660;2022-08-21T00:37:43;101201.53;;;20.61;100.00
71004;BME280;59025;42.050;-8.660;2022-08-21T00:40:14;101201.53;;;20.61;100.00
71004;BME280;59025;42.050;-8.660;2022-08-21T00:42:42;101202.31;;;20.62;100.00
71004;BME280;59025;42.050;-8.660;2022-08-21T00:45:12;101207.13;;;20.43;100.00
71004;BME280;59025;42.050;-8.660;2022-08-21T00:47:39;101215.09;;;20.32;100.00
71004;BME280;59025;42.050;-8.660;2022-08-21T00:50:10;101221.13;;;20.32;100.00
71004;BME280;59025;42.050;-8.660;2022-08-21T00:52:38;101224.50;;;20.33;100.00
71004;BME280;59025;42.050;-8.660;2022-08-21T00:55:08;101215.91;;;20.32;100.00
71004;BME280;59025;42.050;-8.660;2022-08-21T00:57:40;101214.56;;;20.30;100.00
71004;BME280;59025;42.050;-8.660;2022-08-21T01:00:14;101199.19;;;20.33;100.00
71004;BME280;59025;42.050;-8.660;2022-08-21T01:02:43;101204.59;;;20.27;100.00
71004;BME280;59025;42.050;-8.660;2022-08-21T01:05:11;101210.09;;;20.25;100.00
71004;BME280;59025;42.050;-8.660;2022-08-21T01:07:40;101204.53;;;20.22;100.00
71004;BME280;59025;42.050;-8.660;2022-08-21T01:10:09;101199.59;;;20.20;100.00
71004;BME280;59025;42.050;-8.660;2022-08-21T01:12:37;101200.06;;;20.17;100.00
71004;BME280;59025;42.050;-8.660;2022-08-21T01:15:06;101187.00;;;20.17;100.00
71004;BME280;59025;42.050;-8.660;2022-08-21T01:17:36;101186.50;;;20.20;100.00
71004;BME280;59025;42.050;-8.660;2022-08-21T01:20:06;101183.00;;;20.10;100.00
71004;BME280;59025;42.050;-8.660;2022-08-21T01:22:35;101194.47;;;20.09;100.00
71004;BME280;59025;42.050;-8.660;2022-08-21T01:25:05;101192.13;;;20.07;100.00
71004;BME280;59025;42.050;-8.660;2022-08-21T01:27:33;101198.13;;;20.08;100.00
71004;BME280;59025;42.050;-8.660;2022-08-21T01:30:06;101197.34;;;20.07;100.00
71004;BME280;59025;42.050;-8.660;2022-08-21T01:32:35;101199.19;;;20.07;100.00
71004;BME280;59025;42.050;-8.660;2022-08-21T01:35:03;101204.06;;;20.03;100.00
71004;BME280;59025;42.050;-8.660;2022-08-21T01:37:30;101193.56;;;19.98;100.00
71004;BME280;59025;42.050;-8.660;2022-08-21T01:39:59;101195.63;;;19.96;100.00
71004;BME280;59025;42.050;-8.660;2022-08-21T01:42:27;101195.09;;;19.94;100.00
71004;BME280;59025;42.050;-8.660;2022-08-21T01:44:55;101187.75;;;19.91;100.00
71004;BME280;59025;42.050;-8.660;2022-08-21T01:47:23;101196.31;;;19.87;100.00
71004;BME280;59025;42.050;-8.660;2022-08-21T01:49:51;101192.41;;;19.89;100.00
71004;BME280;59025;42.050;-8.660;2022-08-21T01:52:19;101190.84;;;19.88;100.00
71004;BME280;59025;42.050;-8.660;2022-08-21T01:54:46;101192.13;;;19.86;100.00
71004;BME280;59025;42.050;-8.660;2022-08-21T01:57:15;101196.63;;;19.69;100.00
71004;BME280;59025;42.050;-8.660;2022-08-21T01:59:43;101205.97;;;19.65;100.00
71004;BME280;59025;42.050;-8.660;2022-08-21T02:02:10;101188.94;;;19.62;100.00
71004;BME280;59025;42.050;-8.660;2022-08-21T02:04:38;101203.41;;;19.48;100.00
71004;BME280;59025;42.050;-8.660;2022-08-21T02:07:05;101201.19;;;19.40;100.00
71004;BME280;59025;42.050;-8.660;2022-08-21T02:09:33;101217.97;;;19.44;100.00
71004;BME280;59025;42.050;-8.660;2022-08-21T02:12:00;101216.09;;;19.40;100.00
71004;BME280;59025;42.050;-8.660;2022-08-21T02:14:29;101222.72;;;19.47;100.00
71004;BME280;59025;42.050;-8.660;2022-08-21T02:16:57;101203.25;;;19.55;100.00
71004;BME280;59025;42.050;-8.660;2022-08-21T02:19:24;101196.97;;;19.56;100.00
71004;BME280;59025;42.050;-8.660;2022-08-21T02:21:52;101192.84;;;19.60;100.00
71004;BME280;59025;42.050;-8.660;2022-08-21T02:24:19;101195.66;;;19.53;100.00
71004;BME280;59025;42.050;-8.660;2022-08-21T02:26:46;101194.25;;;19.46;100.00
71004;BME280;59025;42.050;-8.660;2022-08-21T02:29:14;101203.88;;;19.45;100.00
71004;BME280;59025;42.050;-8.660;2022-08-21T02:31:43;101207.38;;;19.34;100.00
71004;BME280;59025;42.050;-8.660;2022-08-21T02:34:10;101217.19;;;19.27;100.00
71004;BME280;59025;42.050;-8.660;2022-08-21T02:36:38;101215.09;;;19.24;100.00
71004;BME280;59025;42.050;-8.660;2022-08-21T02:39:05;101204.56;;;19.19;100.00
71004;BME280;59025;42.050;-8.660;2022-08-21T02:41:32;101216.03;;;19.18;100.00
71004;BME280;59025;42.050;-8.660;2022-08-21T02:44:00;101217.50;;;19.14;100.00
71004;BME280;59025;42.050;-8.660;2022-08-21T02:46:27;101214.28;;;19.07;100.00
71004;BME280;59025;42.050;-8.660;2022-08-21T02:48:57;101218.41;;;19.03;100.00
71004;BME280;59025;42.050;-8.660;2022-08-21T02:51:25;101215.88;;;19.08;100.00
71004;BME280;59025;42.050;-8.660;2022-08-21T02:53:52;101221.53;;;19.05;100.00
71004;BME280;59025;42.050;-8.660;2022-08-21T02:56:21;101201.38;;;19.17;100.00
71004;BME280;59025;42.050;-8.660;2022-08-21T02:58:51;101197.53;;;19.03;100.00
71004;BME280;59025;42.050;-8.660;2022-08-21T03:01:19;101217.34;;;19.04;100.00
71004;BME280;59025;42.050;-8.660;2022-08-21T03:03:48;101230.16;;;19.06;100.00
71004;BME280;59025;42.050;-8.660;2022-08-21T03:06:19;101229.28;;;19.00;100.00
71004;BME280;59025;42.050;-8.660;2022-08-21T03:08:47;101239.50;;;19.02;100.00
71004;BME280;59025;42.050;-8.660;2022-08-21T03:11:15;101240.94;;;18.93;100.00
71004;BME280;59025;42.050;-8.660;2022-08-21T03:13:43;101241.53;;;18.83;100.00
71004;BME280;59025;42.050;-8.660;2022-08-21T03:16:10;101239.72;;;18.84;100.00
71004;BME280;59025;42.050;-8.660;2022-08-21T03:18:38;101236.81;;;18.80;100.00
71004;BME280;59025;42.050;-8.660;2022-08-21T03:21:06;101249.97;;;18.74;100.00
71004;BME280;59025;42.050;-8.660;2022-08-21T03:23:35;101261.13;;;18.69;100.00
71004;BME280;59025;42.050;-8.660;2022-08-21T03:26:05;101255.81;;;18.64;100.00
71004;BME280;59025;42.050;-8.660;2022-08-21T03:28:32;101271.13;;;18.61;100.00
71004;BME280;59025;42.050;-8.660;2022-08-21T03:31:00;101264.25;;;18.55;100.00
71004;BME280;59025;42.050;-8.660;2022-08-21T03:33:27;101276.66;;;18.48;100.00
71004;BME280;59025;42.050;-8.660;2022-08-21T03:36:05;101298.75;;;18.45;100.00
71004;BME280;59025;42.050;-8.660;2022-08-21T03:38:35;101285.03;;;18.38;100.00
71004;BME280;59025;42.050;-8.660;2022-08-21T03:41:04;101293.88;;;18.37;100.00
71004;BME280;59025;42.050;-8.660;2022-08-21T03:43:32;101292.84;;;18.38;100.00
71004;BME280;59025;42.050;-8.660;2022-08-21T03:46:01;101292.31;;;18.36;100.00
71004;BME280;59025;42.050;-8.660;2022-08-21T03:48:29;101288.13;;;18.35;100.00
71004;BME280;59025;42.050;-8.660;2022-08-21T03:50:56;101291.84;;;18.28;100.00
71004;BME280;59025;42.050;-8.660;2022-08-21T03:53:24;101287.91;;;18.25;100.00
71004;BME280;59025;42.050;-8.660;2022-08-21T03:55:53;101281.22;;;18.18;100.00
71004;BME280;59025;42.050;-8.660;2022-08-21T03:58:24;101282.03;;;18.18;100.00
71004;BME280;59025;42.050;-8.660;2022-08-21T04:00:54;101286.13;;;18.14;100.00
71004;BME280;59025;42.050;-8.660;2022-08-21T04:03:22;101283.63;;;18.19;100.00
71004;BME280;59025;42.050;-8.660;2022-08-21T04:05:50;101279.75;;;18.22;100.00
71004;BME280;59025;42.050;-8.660;2022-08-21T04:08:18;101283.50;;;18.26;100.00
71004;BME280;59025;42.050;-8.660;2022-08-21T04:10:48;101267.06;;;18.25;100.00
71004;BME280;59025;42.050;-8.660;2022-08-21T04:13:17;101264.00;;;18.28;100.00
71004;BME280;59025;42.050;-8.660;2022-08-21T04:15:44;101255.59;;;18.26;100.00
71004;BME280;59025;42.050;-8.660;2022-08-21T04:18:12;101251.34;;;18.20;100.00
71004;BME280;59025;42.050;-8.660;2022-08-21T04:20:41;101257.88;;;18.23;100.00
71004;BME280;59025;42.050;-8.660;2022-08-21T04:23:09;101269.78;;;18.19;100.00
71004;BME280;59025;42.050;-8.660;2022-08-21T04:25:37;101244.53;;;18.19;100.00
71004;BME280;59025;42.050;-8.660;2022-08-21T04:28:04;101255.19;;;18.18;100.00
71004;BME280;59025;42.050;-8.660;2022-08-21T04:30:33;101260.19;;;18.08;100.00
71004;BME280;59025;42.050;-8.660;2022-08-21T04:33:01;101248.06;;;18.13;100.00
71004;BME280;59025;42.050;-8.660;2022-08-21T04:35:30;101245.75;;;18.00;100.00
71004;BME280;59025;42.050;-8.660;2022-08-21T04:37:57;101243.59;;;17.97;100.00
71004;BME280;59025;42.050;-8.660;2022-08-21T04:40:26;101260.13;;;17.91;100.00
71004;BME280;59025;42.050;-8.660;2022-08-21T04:42:59;101257.97;;;18.00;100.00
71004;BME280;59025;42.050;-8.660;2022-08-21T04:45:30;101267.63;;;17.88;100.00
71004;BME280;59025;42.050;-8.660;2022-08-21T04:48:01;101265.94;;;17.82;100.00
71004;BME280;59025;42.050;-8.660;2022-08-21T04:50:41;101280.06;;;17.86;100.00
71004;BME280;59025;42.050;-8.660;2022-08-21T04:53:16;101281.63;;;17.98;100.00
71004;BME280;59025;42.050;-8.660;2022-08-21T04:55:45;101261.72;;;17.92;100.00
71004;BME280;59025;42.050;-8.660;2022-08-21T04:58:16;101249.50;;;17.93;100.00
71004;BME280;59025;42.050;-8.660;2022-08-21T05:00:44;101264.69;;;17.84;100.00
71004;BME280;59025;42.050;-8.660;2022-08-21T05:03:16;101282.44;;;17.87;100.00
71004;BME280;59025;42.050;-8.660;2022-08-21T05:05:44;101296.59;;;17.91;100.00
71004;BME280;59025;42.050;-8.660;2022-08-21T05:08:15;101316.75;;;17.84;100.00
71004;BME280;59025;42.050;-8.660;2022-08-21T05:10:43;101323.88;;;17.77;100.00
71004;BME280;59025;42.050;-8.660;2022-08-21T05:13:11;101329.31;;;17.76;100.00
71004;BME280;59025;42.050;-8.660;2022-08-21T05:15:39;101325.91;;;17.75;100.00
71004;BME280;59025;42.050;-8.660;2022-08-21T05:18:07;101330.09;;;17.76;100.00
71004;BME280;59025;42.050;-8.660;2022-08-21T05:20:36;101333.72;;;17.75;100.00
71004;BME280;59025;42.050;-8.660;2022-08-21T05:23:07;101323.31;;;17.75;100.00
71004;BME280;59025;42.050;-8.660;2022-08-21T05:25:34;101317.19;;;17.81;100.00
71004;BME280;59025;42.050;-8.660;2022-08-21T05:28:02;101303.38;;;17.92;100.00
71004;BME280;59025;42.050;-8.660;2022-08-21T05:30:30;101295.69;;;17.86;100.00
71004;BME280;59025;42.050;-8.660;2022-08-21T05:32:58;101288.22;;;17.78;100.00
71004;BME280;59025;42.050;-8.660;2022-08-21T05:35:26;101324.13;;;17.76;100.00
71004;BME280;59025;42.050;-8.660;2022-08-21T05:37:55;101336.91;;;17.77;100.00
71004;BME280;59025;42.050;-8.660;2022-08-21T05:40:23;101353.75;;;17.75;100.00
71004;BME280;59025;42.050;-8.660;2022-08-21T05:42:52;101365.31;;;17.67;100.00
71004;BME280;59025;42.050;-8.660;2022-08-21T05:45:20;101379.69;;;17.70;100.00
71004;BME280;59025;42.050;-8.660;2022-08-21T05:47:47;101379.56;;;17.65;100.00
71004;BME280;59025;42.050;-8.660;2022-08-21T05:50:15;101389.97;;;17.65;100.00
71004;BME280;59025;42.050;-8.660;2022-08-21T05:52:42;101388.81;;;17.61;100.00
71004;BME280;59025;42.050;-8.660;2022-08-21T05:55:11;101388.47;;;17.57;100.00
71004;BME280;59025;42.050;-8.660;2022-08-21T05:57:39;101390.06;;;17.58;100.00
71004;BME280;59025;42.050;-8.660;2022-08-21T06:00:08;101383.28;;;17.57;100.00
71004;BME280;59025;42.050;-8.660;2022-08-21T06:02:38;101389.28;;;17.58;100.00
71004;BME280;59025;42.050;-8.660;2022-08-21T06:05:06;101392.44;;;17.60;100.00
71004;BME280;59025;42.050;-8.660;2022-08-21T06:07:33;101396.53;;;17.67;100.00
71004;BME280;59025;42.050;-8.660;2022-08-21T06:10:02;101394.81;;;17.73;100.00
71004;BME280;59025;42.050;-8.660;2022-08-21T06:12:31;101406.47;;;17.70;100.00
71004;BME280;59025;42.050;-8.660;2022-08-21T06:14:58;101413.38;;;17.76;100.00
71004;BME280;59025;42.050;-8.660;2022-08-21T06:17:25;101415.22;;;17.87;100.00
71004;BME280;59025;42.050;-8.660;2022-08-21T06:19:54;101414.63;;;17.97;100.00
71004;BME280;59025;42.050;-8.660;2022-08-21T06:22:21;101409.88;;;18.05;100.00
71004;BME280;59025;42.050;-8.660;2022-08-21T06:24:49;101401.97;;;18.12;100.00
71004;BME280;59025;42.050;-8.660;2022-08-21T06:27:16;101403.06;;;18.27;100.00
71004;BME280;59025;42.050;-8.660;2022-08-21T06:29:45;101395.19;;;18.34;100.00
71004;BME280;59025;42.050;-8.660;2022-08-21T06:32:13;101383.50;;;18.36;100.00
71004;BME280;59025;42.050;-8.660;2022-08-21T06:34:41;101374.53;;;18.44;100.00
71004;BME280;59025;42.050;-8.660;2022-08-21T06:37:09;101378.50;;;18.46;100.00
71004;BME280;59025;42.050;-8.660;2022-08-21T06:39:36;101374.41;;;18.50;100.00
71004;BME280;59025;42.050;-8.660;2022-08-21T06:42:04;101369.16;;;18.62;100.00
71004;BME280;59025;42.050;-8.660;2022-08-21T06:44:31;101350.88;;;19.18;100.00
71004;BME280;59025;42.050;-8.660;2022-08-21T06:47:00;101288.56;;;20.35;100.00
71004;BME280;59025;42.050;-8.660;2022-08-21T06:49:27;101224.38;;;21.49;100.00
71004;BME280;59025;42.050;-8.660;2022-08-21T06:51:55;101210.03;;;22.33;100.00
71004;BME280;59025;42.050;-8.660;2022-08-21T06:54:22;101191.91;;;23.11;100.00
71004;BME280;59025;42.050;-8.660;2022-08-21T06:56:50;101189.59;;;23.88;100.00
71004;BME280;59025;42.050;-8.660;2022-08-21T06:59:17;101198.09;;;24.19;100.00
71004;BME280;59025;42.050;-8.660;2022-08-21T07:01:45;101187.81;;;24.56;100.00
71004;BME280;59025;42.050;-8.660;2022-08-21T07:04:14;101181.94;;;24.69;100.00
71004;BME280;59025;42.050;-8.660;2022-08-21T07:06:41;101176.22;;;24.57;100.00
71004;BME280;59025;42.050;-8.660;2022-08-21T07:09:08;101189.91;;;24.92;100.00
71004;BME280;59025;42.050;-8.660;2022-08-21T07:11:36;101188.78;;;25.22;100.00
71004;BME280;59025;42.050;-8.660;2022-08-21T07:14:04;101186.22;;;25.40;100.00
71004;BME280;59025;42.050;-8.660;2022-08-21T07:16:32;101184.38;;;25.83;100.00
71004;BME280;59025;42.050;-8.660;2022-08-21T07:18:59;101185.97;;;26.21;100.00
71004;BME280;59025;42.050;-8.660;2022-08-21T07:21:28;101195.66;;;25.88;100.00
71004;BME280;59025;42.050;-8.660;2022-08-21T07:23:56;101194.44;;;26.18;100.00
71004;BME280;59025;42.050;-8.660;2022-08-21T07:26:23;101188.59;;;26.02;100.00
71004;BME280;59025;42.050;-8.660;2022-08-21T07:28:52;101179.69;;;25.80;100.00
71004;BME280;59025;42.050;-8.660;2022-08-21T07:31:21;101176.53;;;25.59;100.00
71004;BME280;59025;42.050;-8.660;2022-08-21T07:33:49;101178.53;;;25.86;100.00
71004;BME280;59025;42.050;-8.660;2022-08-21T07:36:17;101180.53;;;26.31;100.00
71004;BME280;59025;42.050;-8.660;2022-08-21T07:38:46;101171.88;;;26.62;100.00
71004;BME280;59025;42.050;-8.660;2022-08-21T07:41:16;101178.34;;;26.51;100.00
71004;BME280;59025;42.050;-8.660;2022-08-21T07:43:44;101171.69;;;26.86;100.00
71004;BME280;59025;42.050;-8.660;2022-08-21T07:46:12;101165.78;;;27.21;100.00
71004;BME280;59025;42.050;-8.660;2022-08-21T07:48:40;101169.72;;;27.37;100.00
71004;BME280;59025;42.050;-8.660;2022-08-21T07:51:11;101158.19;;;28.04;100.00
71004;BME280;59025;42.050;-8.660;2022-08-21T07:53:39;101151.94;;;28.74;100.00
71004;BME280;59025;42.050;-8.660;2022-08-21T07:56:09;101154.59;;;28.74;100.00
71004;BME280;59025;42.050;-8.660;2022-08-21T07:58:36;101153.81;;;28.65;100.00
71004;BME280;59025;42.050;-8.660;2022-08-21T08:01:05;101148.56;;;28.82;100.00
71004;BME280;59025;42.050;-8.660;2022-08-21T08:03:33;101150.94;;;28.84;100.00
71004;BME280;59025;42.050;-8.660;2022-08-21T08:06:00;101154.47;;;29.10;100.00
71004;BME280;59025;42.050;-8.660;2022-08-21T08:08:30;101148.75;;;29.25;100.00
71004;BME280;59025;42.050;-8.660;2022-08-21T08:10:58;101148.78;;;29.50;100.00
71004;BME280;59025;42.050;-8.660;2022-08-21T08:13:28;101146.03;;;29.89;100.00
71004;BME280;59025;42.050;-8.660;2022-08-21T08:15:56;101139.59;;;30.41;100.00
71004;BME280;59025;42.050;-8.660;2022-08-21T08:18:23;101139.03;;;30.73;100.00
71004;BME280;59025;42.050;-8.660;2022-08-21T08:20:51;101129.53;;;31.01;100.00
71004;BME280;59025;42.050;-8.660;2022-08-21T08:23:18;101133.81;;;31.43;100.00
71004;BME280;59025;42.050;-8.660;2022-08-21T08:25:46;101121.28;;;32.05;100.00
71004;BME280;59025;42.050;-8.660;2022-08-21T08:28:13;101115.97;;;32.62;100.00
71004;BME280;59025;42.050;-8.660;2022-08-21T08:30:42;101108.81;;;32.86;100.00
71004;BME280;59025;42.050;-8.660;2022-08-21T08:33:10;101094.22;;;33.87;100.00
71004;BME280;59025;42.050;-8.660;2022-08-21T08:35:37;101105.09;;;33.94;100.00
71004;BME280;59025;42.050;-8.660;2022-08-21T08:38:05;101099.03;;;34.24;99.95
71004;BME280;59025;42.050;-8.660;2022-08-21T08:40:39;101093.97;;;34.81;96.19
71004;BME280;59025;42.050;-8.660;2022-08-21T08:43:09;101087.59;;;35.39;93.15
71004;BME280;59025;42.050;-8.660;2022-08-21T08:45:39;101094.63;;;35.66;90.28
71004;BME280;59025;42.050;-8.660;2022-08-21T08:48:11;101091.84;;;35.40;89.75
71004;BME280;59025;42.050;-8.660;2022-08-21T08:50:44;101090.84;;;35.86;89.10
71004;BME280;59025;42.050;-8.660;2022-08-21T08:53:17;101092.63;;;36.01;86.53
71004;BME280;59025;42.050;-8.660;2022-08-21T08:55:46;101082.78;;;35.86;87.79
71004;BME280;59025;42.050;-8.660;2022-08-21T08:58:18;101094.28;;;35.49;89.97
71004;BME280;59025;42.050;-8.660;2022-08-21T09:00:49;101102.19;;;35.42;91.08
71004;BME280;59025;42.050;-8.660;2022-08-21T09:03:19;101100.53;;;35.94;89.50
71004;BME280;59025;42.050;-8.660;2022-08-21T09:05:51;101104.63;;;36.07;83.15
71004;BME280;59025;42.050;-8.660;2022-08-21T09:08:46;101098.97;;;36.12;84.37
71004;BME280;59025;42.050;-8.660;2022-08-21T09:11:25;101086.91;;;36.03;84.42
71004;BME280;59025;42.050;-8.660;2022-08-21T09:14:01;101092.25;;;35.61;85.31
71004;BME280;59025;42.050;-8.660;2022-08-21T09:16:39;101090.41;;;35.84;84.85
71004;BME280;59025;42.050;-8.660;2022-08-21T09:19:18;101093.91;;;35.88;84.76
71004;BME280;59025;42.050;-8.660;2022-08-21T09:21:59;101086.53;;;35.82;85.34
71004;BME280;59025;42.050;-8.660;2022-08-21T09:24:35;101087.50;;;35.93;83.88
71004;BME280;59025;42.050;-8.660;2022-08-21T09:27:09;101088.78;;;36.21;80.80
71004;BME280;59025;42.050;-8.660;2022-08-21T09:29:39;101086.31;;;36.80;79.26
71004;BME280;59025;42.050;-8.660;2022-08-21T09:32:11;101090.72;;;36.95;76.62
71004;BME280;59025;42.050;-8.660;2022-08-21T09:34:55;101088.50;;;37.01;76.87
71004;BME280;59025;42.050;-8.660;2022-08-21T09:37:23;101086.00;;;36.85;78.32
71004;BME280;59025;42.050;-8.660;2022-08-21T09:39:51;101082.53;;;36.36;83.81
71004;BME280;59025;42.050;-8.660;2022-08-21T09:42:24;101080.00;;;36.69;81.77
71004;BME280;59025;42.050;-8.660;2022-08-21T09:45:07;101082.47;;;37.07;79.05
71004;BME280;59025;42.050;-8.660;2022-08-21T09:47:36;101082.91;;;37.42;80.38
71004;BME280;59025;42.050;-8.660;2022-08-21T09:50:11;101084.41;;;37.40;78.49
71004;BME280;59025;42.050;-8.660;2022-08-21T09:52:44;101083.88;;;37.01;80.96
71004;BME280;59025;42.050;-8.660;2022-08-21T09:55:16;101091.88;;;36.68;82.54
71004;BME280;59025;42.050;-8.660;2022-08-21T09:57:59;101083.81;;;36.46;84.71
71004;BME280;59025;42.050;-8.660;2022-08-21T10:00:30;101091.53;;;36.73;83.02
71004;BME280;59025;42.050;-8.660;2022-08-21T10:03:17;101092.06;;;36.82;82.21
71004;BME280;59025;42.050;-8.660;2022-08-21T10:06:00;101084.13;;;36.63;82.63
71004;BME280;59025;42.050;-8.660;2022-08-21T10:08:32;101078.25;;;36.32;85.09
71004;BME280;59025;42.050;-8.660;2022-08-21T10:11:04;101089.06;;;36.16;84.42
71004;BME280;59025;42.050;-8.660;2022-08-21T10:13:56;101087.81;;;35.88;85.43
71004;BME280;59025;42.050;-8.660;2022-08-21T10:16:32;101097.25;;;36.23;83.04
71004;BME280;59025;42.050;-8.660;2022-08-21T10:19:14;101088.00;;;36.66;81.99
71004;BME280;59025;42.050;-8.660;2022-08-21T10:21:53;101092.63;;;36.95;79.79
71004;BME280;59025;42.050;-8.660;2022-08-21T10:24:29;101100.22;;;36.63;80.99
71004;BME280;59025;42.050;-8.660;2022-08-21T10:27:07;101099.50;;;36.66;80.79
71004;BME280;59025;42.050;-8.660;2022-08-21T10:29:46;101100.31;;;36.70;80.08
71004;BME280;59025;42.050;-8.660;2022-08-21T10:32:26;101091.41;;;36.89;79.61
71004;BME280;59025;42.050;-8.660;2022-08-21T10:35:01;101093.56;;;37.35;71.41
71004;BME280;59025;42.050;-8.660;2022-08-21T10:37:46;101085.28;;;37.18;67.64
71004;BME280;59025;42.050;-8.660;2022-08-21T10:40:22;101081.06;;;36.65;73.00
71004;BME280;59025;42.050;-8.660;2022-08-21T10:43:08;101080.94;;;36.32;77.47
71004;BME280;59025;42.050;-8.660;2022-08-21T10:45:49;101079.53;;;36.64;72.73
71004;BME280;59025;42.050;-8.660;2022-08-21T10:48:25;101080.19;;;36.83;72.36
71004;BME280;59025;42.050;-8.660;2022-08-21T10:51:01;101070.91;;;37.03;70.69
71004;BME280;59025;42.050;-8.660;2022-08-21T10:53:45;101065.69;;;37.47;66.40
71004;BME280;59025;42.050;-8.660;2022-08-21T10:56:17;101066.66;;;37.61;59.54
71004;BME280;59025;42.050;-8.660;2022-08-21T10:58:53;101065.09;;;37.60;57.86
71004;BME280;59025;42.050;-8.660;2022-08-21T11:01:27;101060.78;;;36.41;65.89
71004;BME280;59025;42.050;-8.660;2022-08-21T11:04:07;101048.13;;;36.64;66.10
71004;BME280;59025;42.050;-8.660;2022-08-21T11:06:40;101049.47;;;36.77;60.96
71004;BME280;59025;42.050;-8.660;2022-08-21T11:09:13;101046.63;;;36.67;60.17
71004;BME280;59025;42.050;-8.660;2022-08-21T11:11:45;101036.00;;;37.03;58.48
71004;BME280;59025;42.050;-8.660;2022-08-21T11:14:21;101035.69;;;37.08;60.21
71004;BME280;59025;42.050;-8.660;2022-08-21T11:16:58;101029.84;;;36.73;60.65
71004;BME280;59025;42.050;-8.660;2022-08-21T11:19:31;101021.81;;;36.73;59.37
71004;BME280;59025;42.050;-8.660;2022-08-21T11:22:08;101022.09;;;37.24;60.00
71004;BME280;59025;42.050;-8.660;2022-08-21T11:24:46;101023.31;;;37.63;56.54
71004;BME280;59025;42.050;-8.660;2022-08-21T11:27:21;101022.59;;;37.03;51.19
71004;BME280;59025;42.050;-8.660;2022-08-21T11:29:52;101016.63;;;36.61;51.75
71004;BME280;59025;42.050;-8.660;2022-08-21T11:32:36;101019.47;;;36.68;51.38
71004;BME280;59025;42.050;-8.660;2022-08-21T11:35:13;101016.19;;;36.56;43.92
71004;BME280;59025;42.050;-8.660;2022-08-21T11:37:55;101023.66;;;36.43;47.00
71004;BME280;59025;42.050;-8.660;2022-08-21T11:40:42;101011.41;;;36.68;43.98
71004;BME280;59025;42.050;-8.660;2022-08-21T11:43:21;101004.25;;;36.27;47.95
71004;BME280;59025;42.050;-8.660;2022-08-21T11:45:54;101007.56;;;36.43;45.54
71004;BME280;59025;42.050;-8.660;2022-08-21T11:48:35;100995.25;;;35.90;48.50
71004;BME280;59025;42.050;-8.660;2022-08-21T11:51:11;100990.28;;;35.70;51.29
71004;BME280;59025;42.050;-8.660;2022-08-21T11:53:45;100985.66;;;35.89;54.08
71004;BME280;59025;42.050;-8.660;2022-08-21T11:56:23;100989.53;;;35.50;54.78
71004;BME280;59025;42.050;-8.660;2022-08-21T11:58:56;100983.41;;;34.93;63.75
71004;BME280;59025;42.050;-8.660;2022-08-21T12:01:29;100981.63;;;34.81;68.83
71004;BME280;59025;42.050;-8.660;2022-08-21T12:04:02;100989.41;;;35.24;58.98
71004;BME280;59025;42.050;-8.660;2022-08-21T12:06:34;100987.06;;;35.23;59.13
71004;BME280;59025;42.050;-8.660;2022-08-21T12:09:05;100979.59;;;35.13;62.20
71004;BME280;59025;42.050;-8.660;2022-08-21T12:11:46;100978.28;;;35.22;71.69
71004;BME280;59025;42.050;-8.660;2022-08-21T12:14:16;100982.13;;;35.06;78.17
71004;BME280;59025;42.050;-8.660;2022-08-21T12:16:45;100984.06;;;34.36;75.01
71004;BME280;59025;42.050;-8.660;2022-08-21T12:19:29;100984.78;;;33.59;82.19
71004;BME280;59025;42.050;-8.660;2022-08-21T12:21:59;100991.47;;;32.62;91.04
71004;BME280;59025;42.050;-8.660;2022-08-21T12:24:37;101005.13;;;32.01;96.22
71004;BME280;59025;42.050;-8.660;2022-08-21T12:27:26;101021.69;;;31.53;100.00
71004;BME280;59025;42.050;-8.660;2022-08-21T12:29:58;101028.22;;;31.23;100.00
71004;BME280;59025;42.050;-8.660;2022-08-21T12:32:28;101036.09;;;31.20;100.00
71004;BME280;59025;42.050;-8.660;2022-08-21T12:35:02;101024.88;;;31.67;100.00
71004;BME280;59025;42.050;-8.660;2022-08-21T12:37:38;101036.28;;;32.00;100.00
71004;BME280;59025;42.050;-8.660;2022-08-21T12:40:11;101025.69;;;32.24;100.00
71004;BME280;59025;42.050;-8.660;2022-08-21T12:42:46;101033.19;;;32.22;100.00
71004;BME280;59025;42.050;-8.660;2022-08-21T12:45:19;101027.56;;;32.24;100.00
71004;BME280;59025;42.050;-8.660;2022-08-21T12:47:51;101021.31;;;32.20;100.00
71004;BME280;59025;42.050;-8.660;2022-08-21T12:50:29;101030.63;;;32.14;100.00